createdAt,value
2023-03-21T00:00:56.063Z,100100.34
2023-03-21T00:03:26.752Z,100088.94
2023-03-21T00:05:55.003Z,100088.84
2023-03-21T00:08:25.864Z,100088.78
2023-03-21T00:10:58.379Z,100090.88
2023-03-21T00:13:28.204Z,100093.63
2023-03-21T00:16:06.696Z,100087.28
2023-03-21T00:18:58.199Z,100081.50
2023-03-21T00:22:03.633Z,100078.91
2023-03-21T00:24:20.916Z,100080.69
2023-03-21T00:26:49.277Z,100082.06
2023-03-21T00:29:19.331Z,100077.56
2023-03-21T00:31:48.325Z,100078.50
2023-03-21T00:34:22.717Z,100077.69
2023-03-21T00:37:01.583Z,100071.38
2023-03-21T00:39:29.809Z,100083.47
2023-03-21T00:41:57.965Z,100082.06
2023-03-21T00:44:26.325Z,100080.56
2023-03-21T00:47:06.451Z,100081.81
2023-03-21T00:49:38.401Z,100082.06
2023-03-21T00:52:17.058Z,100074.97
2023-03-21T00:54:48.566Z,100069.75
2023-03-21T00:57:16.929Z,100076.19
2023-03-21T00:59:45.976Z,100070.81
2023-03-21T01:02:22.544Z,100066.69
2023-03-21T01:04:52.546Z,100063.91
2023-03-21T01:07:20.947Z,100065.44
2023-03-21T01:09:49.197Z,100052.00
2023-03-21T01:12:20.249Z,100053.16
2023-03-21T01:14:48.542Z,100046.09
2023-03-21T01:17:16.816Z,100057.09
2023-03-21T01:19:52.077Z,100054.94
2023-03-21T01:22:22.180Z,100048.03
2023-03-21T01:24:55.507Z,100046.72
2023-03-21T01:27:28.815Z,100034.06
2023-03-21T01:29:57.809Z,100033.22
2023-03-21T01:32:27.096Z,100031.00
2023-03-21T01:34:55.380Z,100029.69
2023-03-21T01:37:26.507Z,100027.88
2023-03-21T01:39:54.661Z,100023.69
2023-03-21T01:42:23.725Z,100023.97
2023-03-21T01:44:59.804Z,100016.00
2023-03-21T01:47:36.742Z,100018.97
2023-03-21T01:50:22.337Z,100013.13
2023-03-21T01:53:06.456Z,100012.72
2023-03-21T01:55:37.422Z,100009.22
2023-03-21T01:58:14.109Z,100006.50
2023-03-21T02:00:53.918Z,100002.88
2023-03-21T02:03:50.278Z,99999.94
2023-03-21T02:06:40.057Z,100007.75
2023-03-21T02:09:28.766Z,99999.59
2023-03-21T02:11:57.814Z,99995.44
2023-03-21T02:14:34.385Z,99993.47
2023-03-21T02:17:18.324Z,99985.94
2023-03-21T02:20:51.040Z,99985.25
2023-03-21T02:24:12.310Z,99977.47
2023-03-21T02:27:03.836Z,99975.94
2023-03-21T02:30:30.461Z,99973.47
2023-03-21T02:33:52.590Z,99973.00
2023-03-21T02:37:03.040Z,99965.22
2023-03-21T02:39:46.778Z,99958.34
2023-03-21T02:42:22.103Z,99960.78
2023-03-21T02:45:01.335Z,99955.94
2023-03-21T02:47:35.761Z,99965.91
2023-03-21T02:50:12.675Z,99958.25
2023-03-21T02:52:47.033Z,99953.38
2023-03-21T02:55:21.882Z,99951.41
2023-03-21T02:58:10.426Z,99945.94
2023-03-21T03:00:44.077Z,99947.06
2023-03-21T03:03:24.981Z,99942.44
2023-03-21T03:06:03.537Z,99937.72
2023-03-21T03:08:59.549Z,99939.28
2023-03-21T03:11:34.630Z,99931.38
2023-03-21T03:14:53.149Z,99934.59
2023-03-21T03:17:44.677Z,99926.38
2023-03-21T03:20:31.519Z,99930.84
2023-03-21T03:23:13.021Z,99930.84
2023-03-21T03:25:51.112Z,99929.72
2023-03-21T03:28:24.337Z,99926.06
2023-03-21T03:31:08.136Z,99922.56
2023-03-21T03:33:52.048Z,99922.19
2023-03-21T03:36:32.114Z,99922.63
2023-03-21T03:39:10.317Z,99923.84
2023-03-21T03:42:15.252Z,99912.88
2023-03-21T03:44:43.043Z,99915.91
2023-03-21T03:47:31.726Z,99918.16
2023-03-21T03:50:09.579Z,99915.41
2023-03-21T03:52:55.238Z,99912.50
2023-03-21T03:55:28.180Z,99914.81
2023-03-21T03:58:06.401Z,99914.22
2023-03-21T04:00:40.940Z,99914.13
2023-03-21T04:03:09.818Z,99919.63
2023-03-21T04:05:38.376Z,99913.38
2023-03-21T04:08:07.572Z,99912.84
2023-03-21T04:10:42.452Z,99903.34
2023-03-21T04:13:13.000Z,99909.78
2023-03-21T04:15:49.848Z,99902.56
2023-03-21T04:18:18.239Z,99905.75
2023-03-21T04:20:48.451Z,99900.00
2023-03-21T04:23:18.797Z,99901.47
2023-03-21T04:25:56.415Z,99905.69
2023-03-21T04:28:30.118Z,99900.97
2023-03-21T04:31:28.370Z,99900.91
2023-03-21T04:34:09.887Z,99910.53
2023-03-21T04:36:42.885Z,99898.19
2023-03-21T04:39:13.090Z,99900.47
2023-03-21T04:41:44.160Z,99900.31
2023-03-21T04:44:17.004Z,99903.97
2023-03-21T04:46:46.420Z,99889.81
2023-03-21T04:49:15.296Z,99897.25
2023-03-21T04:51:46.116Z,99893.25
2023-03-21T04:54:18.943Z,99898.69
2023-03-21T04:56:47.142Z,99887.78
2023-03-21T04:59:17.616Z,99896.44
2023-03-21T05:01:46.436Z,99892.09
2023-03-21T05:04:15.675Z,99881.47
2023-03-21T05:06:44.848Z,99891.50
2023-03-21T05:09:14.830Z,99894.19
2023-03-21T05:11:43.753Z,99890.78
2023-03-21T05:14:19.567Z,99892.41
2023-03-21T05:16:53.187Z,99899.13
2023-03-21T05:19:24.137Z,99900.09
2023-03-21T05:21:53.173Z,99898.66
2023-03-21T05:24:24.459Z,99901.94
2023-03-21T05:26:56.108Z,99899.41
2023-03-21T05:29:30.073Z,99896.34
2023-03-21T05:32:08.568Z,99900.31
2023-03-21T05:34:36.788Z,99904.44
2023-03-21T05:37:05.680Z,99908.09
2023-03-21T05:39:49.651Z,99899.00
2023-03-21T05:42:25.610Z,99905.41
2023-03-21T05:44:55.823Z,99904.94
2023-03-21T05:47:29.823Z,99915.47
2023-03-21T05:50:00.728Z,99906.38
2023-03-21T05:52:29.664Z,99919.47
2023-03-21T05:54:58.585Z,99918.22
2023-03-21T05:57:28.847Z,99920.25
2023-03-21T06:00:01.601Z,99928.28
2023-03-21T06:02:32.253Z,99925.41
2023-03-21T06:05:05.208Z,99930.72
2023-03-21T06:07:33.909Z,99935.28
2023-03-21T06:10:02.102Z,99930.53
2023-03-21T06:12:31.377Z,99938.84
2023-03-21T06:15:22.726Z,99936.78
2023-03-21T06:17:58.736Z,99939.97
2023-03-21T06:20:30.600Z,99927.94
2023-03-21T06:23:06.110Z,99939.88
2023-03-21T06:25:35.003Z,99930.28
2023-03-21T06:28:03.268Z,99933.44
2023-03-21T06:30:33.875Z,99932.88
2023-03-21T06:33:29.103Z,99931.75
2023-03-21T06:35:59.579Z,99925.31
2023-03-21T06:38:28.094Z,99922.44
2023-03-21T06:40:56.281Z,99921.44
2023-03-21T06:43:26.808Z,99918.63
2023-03-21T06:45:56.536Z,99925.31
2023-03-21T06:48:24.948Z,99913.06
2023-03-21T06:50:54.540Z,99914.06
2023-03-21T06:53:27.397Z,99912.09
2023-03-21T06:56:16.839Z,99907.81
2023-03-21T06:58:46.685Z,99904.03
2023-03-21T07:01:27.751Z,99899.88
2023-03-21T07:04:04.784Z,99896.69
2023-03-21T07:06:33.603Z,99892.69
2023-03-21T07:09:03.019Z,99896.53
2023-03-21T07:11:33.795Z,99892.22
2023-03-21T07:14:02.741Z,99892.34
2023-03-21T07:16:32.361Z,99894.81
2023-03-21T07:19:00.714Z,99899.72
2023-03-21T07:21:29.077Z,99899.47
2023-03-21T07:23:57.477Z,99904.94
2023-03-21T07:26:25.723Z,99910.50
2023-03-21T07:28:53.971Z,99906.59
2023-03-21T07:31:25.918Z,99899.69
2023-03-21T07:33:55.574Z,99889.34
2023-03-21T07:36:24.739Z,99900.63
2023-03-21T07:38:53.158Z,99894.06
2023-03-21T07:41:25.232Z,99893.84
2023-03-21T07:43:53.685Z,99892.63
2023-03-21T07:46:22.074Z,99891.56
2023-03-21T07:48:50.332Z,99888.00
2023-03-21T07:51:19.899Z,99894.06
2023-03-21T07:53:48.726Z,99883.00
2023-03-21T07:56:17.090Z,99895.25
2023-03-21T07:58:45.279Z,99882.25
2023-03-21T08:01:13.507Z,99897.44
2023-03-21T08:03:41.800Z,99888.16
2023-03-21T08:06:11.546Z,99893.53
2023-03-21T08:08:41.318Z,99892.41
2023-03-21T08:11:09.607Z,99894.00
2023-03-21T08:13:37.842Z,99904.22
2023-03-21T08:16:06.968Z,99894.66
2023-03-21T08:18:35.365Z,99887.56
2023-03-21T08:21:03.853Z,99887.91
2023-03-21T08:23:32.060Z,99889.94
2023-03-21T08:26:01.997Z,99897.63
2023-03-21T08:28:30.220Z,99899.13
2023-03-21T08:30:58.697Z,99901.91
2023-03-21T08:33:27.397Z,99910.00
2023-03-21T08:35:55.671Z,99901.63
2023-03-21T08:38:23.998Z,99901.53
2023-03-21T08:40:52.247Z,99903.63
2023-03-21T08:43:21.752Z,99906.88
2023-03-21T08:45:50.603Z,99905.59
2023-03-21T08:48:18.890Z,99905.69
2023-03-21T08:50:47.350Z,99904.38
2023-03-21T08:53:15.688Z,99912.50
2023-03-21T08:55:45.162Z,99908.09
2023-03-21T08:58:13.876Z,99905.00
2023-03-21T09:00:43.487Z,99902.31
2023-03-21T09:03:11.879Z,99899.56
2023-03-21T09:05:40.703Z,99902.66
2023-03-21T09:08:09.170Z,99896.00
2023-03-21T09:10:37.451Z,99895.84
2023-03-21T09:13:06.062Z,99890.47
2023-03-21T09:15:35.445Z,99886.22
2023-03-21T09:18:15.010Z,99891.31
2023-03-21T09:20:44.999Z,99888.88
2023-03-21T09:23:14.563Z,99875.91
2023-03-21T09:25:45.580Z,99879.28
2023-03-21T09:28:14.609Z,99873.94
2023-03-21T09:30:43.153Z,99865.22
2023-03-21T09:33:19.128Z,99866.00
2023-03-21T09:35:47.287Z,99864.16
2023-03-21T09:38:15.553Z,99857.84
2023-03-21T09:41:10.798Z,99852.97
2023-03-21T09:43:53.836Z,99860.84
2023-03-21T09:46:30.892Z,99855.06
2023-03-21T09:49:04.641Z,99862.47
2023-03-21T09:51:37.100Z,99858.06
2023-03-21T09:54:10.150Z,99861.03
2023-03-21T09:56:42.405Z,99857.28
2023-03-21T09:59:20.307Z,99852.03
2023-03-21T10:01:50.797Z,99853.69
2023-03-21T10:04:20.630Z,99846.63
2023-03-21T10:06:57.750Z,99841.06
2023-03-21T10:09:29.149Z,99844.31
2023-03-21T10:12:02.702Z,99850.06
2023-03-21T10:14:36.329Z,99839.59
2023-03-21T10:17:22.946Z,99837.63
2023-03-21T10:20:11.988Z,99831.25
2023-03-21T10:22:40.916Z,99833.38
2023-03-21T10:25:15.658Z,99835.47
2023-03-21T10:27:45.145Z,99819.94
2023-03-21T10:30:39.665Z,99821.84
2023-03-21T10:33:12.875Z,99814.50
2023-03-21T10:35:46.127Z,99807.94
2023-03-21T10:38:19.712Z,99795.81
2023-03-21T10:40:48.192Z,99797.44
2023-03-21T10:43:37.727Z,99780.41
2023-03-21T10:46:14.490Z,99782.25
2023-03-21T10:48:46.843Z,99786.97
2023-03-21T10:51:21.839Z,99778.56
2023-03-21T10:53:55.037Z,99777.66
2023-03-21T10:56:27.709Z,99773.56
2023-03-21T10:58:58.534Z,99768.94
2023-03-21T11:01:36.721Z,99758.34
2023-03-21T11:04:13.722Z,99763.59
2023-03-21T11:06:46.756Z,99764.09
2023-03-21T11:09:19.574Z,99764.41
2023-03-21T11:11:54.241Z,99776.69
2023-03-21T11:14:36.922Z,99775.22
2023-03-21T11:17:21.976Z,99788.16
2023-03-21T11:19:52.103Z,99781.13
2023-03-21T11:22:24.132Z,99781.75
2023-03-21T11:24:55.406Z,99782.25
2023-03-21T11:27:24.695Z,99780.31
2023-03-21T11:29:53.569Z,99777.38
2023-03-21T11:32:26.071Z,99783.91
2023-03-21T11:35:00.975Z,99778.16
2023-03-21T11:37:35.159Z,99776.34
2023-03-21T11:40:23.259Z,99775.00
2023-03-21T11:42:54.185Z,99778.66
2023-03-21T11:45:25.538Z,99775.53
2023-03-21T11:47:57.184Z,99779.50
2023-03-21T11:50:33.809Z,99755.41
2023-03-21T11:53:26.904Z,99774.84
2023-03-21T11:56:24.097Z,99764.25
2023-03-21T11:59:19.915Z,99763.63
2023-03-21T12:02:05.680Z,99756.25
2023-03-21T12:04:42.172Z,99755.13
2023-03-21T12:07:40.458Z,99748.03
2023-03-21T12:10:34.182Z,99752.28
2023-03-21T12:13:32.241Z,99753.84
2023-03-21T12:16:20.980Z,99751.16
2023-03-21T12:19:17.637Z,99745.75
2023-03-21T12:22:00.283Z,99746.72
2023-03-21T12:24:34.462Z,99744.91
2023-03-21T12:27:12.491Z,99744.16
2023-03-21T12:30:13.844Z,99728.25
2023-03-21T12:32:59.393Z,99742.66
2023-03-21T12:35:47.519Z,99728.69
2023-03-21T12:38:23.826Z,99718.06
2023-03-21T12:41:05.917Z,99725.88
2023-03-21T12:43:47.527Z,99730.28
2023-03-21T12:46:23.544Z,99713.84
2023-03-21T12:48:55.089Z,99694.09
2023-03-21T12:51:32.307Z,99706.94
2023-03-21T12:54:15.788Z,99715.66
2023-03-21T12:56:53.787Z,99703.69
2023-03-21T12:59:31.098Z,99691.28
2023-03-21T13:02:08.382Z,99697.63
2023-03-21T13:04:48.412Z,99683.28
2023-03-21T13:07:21.839Z,99692.97
2023-03-21T13:09:51.258Z,99679.72
2023-03-21T13:12:35.463Z,99674.28
2023-03-21T13:15:23.967Z,99682.72
2023-03-21T13:18:01.535Z,99670.91
2023-03-21T13:20:40.198Z,99670.53
2023-03-21T13:23:09.557Z,99665.38
2023-03-21T13:25:46.081Z,99668.09
2023-03-21T13:28:22.220Z,99655.78
2023-03-21T13:30:52.615Z,99653.25
2023-03-21T13:33:26.213Z,99643.75
2023-03-21T13:36:05.538Z,99634.88
2023-03-21T13:38:36.367Z,99641.81
2023-03-21T13:41:12.967Z,99632.00
2023-03-21T13:43:46.350Z,99641.25
2023-03-21T13:46:50.379Z,99644.88
2023-03-21T13:49:32.199Z,99637.13
2023-03-21T13:52:03.168Z,99642.16
2023-03-21T13:54:49.593Z,99648.69
2023-03-21T13:57:39.637Z,99643.75
2023-03-21T14:00:24.048Z,99645.34
2023-03-21T14:03:01.008Z,99645.47
2023-03-21T14:05:30.316Z,99642.38
2023-03-21T14:08:12.713Z,99646.44
2023-03-21T14:10:46.053Z,99637.25
2023-03-21T14:13:20.179Z,99630.81
2023-03-21T14:15:55.849Z,99625.28
2023-03-21T14:18:51.840Z,99620.81
2023-03-21T14:21:23.741Z,99620.81
2023-03-21T14:23:59.330Z,99610.59
2023-03-21T14:26:30.937Z,99607.69
2023-03-21T14:28:59.822Z,99602.69
2023-03-21T14:31:28.256Z,99601.47
2023-03-21T14:34:00.892Z,99608.72
2023-03-21T14:36:30.666Z,99606.00
2023-03-21T14:39:08.097Z,99609.47
2023-03-21T14:41:48.221Z,99599.88
2023-03-21T14:44:25.458Z,99595.75
2023-03-21T14:47:01.529Z,99583.63
2023-03-21T14:49:34.080Z,99594.69
2023-03-21T14:52:06.654Z,99582.47
2023-03-21T14:54:36.469Z,99598.97
2023-03-21T14:57:11.324Z,99584.56
2023-03-21T14:59:41.504Z,99572.88
2023-03-21T15:02:21.491Z,99567.06
2023-03-21T15:04:55.408Z,99563.81
2023-03-21T15:07:29.688Z,99567.50
2023-03-21T15:10:00.911Z,99568.44
2023-03-21T15:12:29.038Z,99559.38
2023-03-21T15:14:58.233Z,99564.00
2023-03-21T15:17:27.262Z,99550.09
2023-03-21T15:19:56.762Z,99539.09
2023-03-21T15:22:34.142Z,99546.03
2023-03-21T15:25:07.206Z,99552.81
2023-03-21T15:27:39.630Z,99551.59
2023-03-21T15:30:19.163Z,99549.09
2023-03-21T15:32:48.481Z,99550.50
2023-03-21T15:35:23.574Z,99546.84
2023-03-21T15:37:57.565Z,99552.78
2023-03-21T15:40:28.568Z,99546.88
2023-03-21T15:43:08.358Z,99546.88
2023-03-21T15:45:50.070Z,99537.47
2023-03-21T15:48:22.548Z,99545.22
2023-03-21T15:50:57.493Z,99542.56
2023-03-21T15:53:26.364Z,99549.44
2023-03-21T15:56:01.936Z,99558.50
2023-03-21T15:58:38.652Z,99553.53
2023-03-21T16:01:12.171Z,99551.50
2023-03-21T16:03:45.930Z,99550.88
2023-03-21T16:06:30.352Z,99551.31
2023-03-21T16:09:12.136Z,99555.69
2023-03-21T16:11:42.806Z,99562.47
2023-03-21T16:14:11.561Z,99559.25
2023-03-21T16:16:40.000Z,99561.06
2023-03-21T16:19:08.498Z,99559.94
2023-03-21T16:21:39.117Z,99548.66
2023-03-21T16:24:10.312Z,99554.84
2023-03-21T16:26:45.086Z,99549.50
2023-03-21T16:29:15.775Z,99552.25
2023-03-21T16:31:45.093Z,99555.38
2023-03-21T16:34:13.540Z,99547.06
2023-03-21T16:36:44.408Z,99550.13
2023-03-21T16:39:19.359Z,99549.09
2023-03-21T16:41:48.988Z,99546.59
2023-03-21T16:44:17.320Z,99534.97
2023-03-21T16:46:47.041Z,99543.59
2023-03-21T16:49:21.936Z,99544.53
2023-03-21T16:51:52.993Z,99550.81
2023-03-21T16:54:22.776Z,99547.25
2023-03-21T16:56:53.442Z,99555.50
2023-03-21T16:59:21.833Z,99559.97
2023-03-21T17:01:50.562Z,99567.94
2023-03-21T17:04:20.312Z,99564.75
2023-03-21T17:06:52.873Z,99575.75
2023-03-21T17:09:26.168Z,99582.59
2023-03-21T17:11:54.356Z,99577.06
2023-03-21T17:14:23.014Z,99582.47
2023-03-21T17:16:51.313Z,99593.88
2023-03-21T17:19:23.876Z,99589.44
2023-03-21T17:21:53.535Z,99598.06
2023-03-21T17:24:23.512Z,99600.66
2023-03-21T17:26:52.293Z,99600.59
2023-03-21T17:29:20.733Z,99599.13
2023-03-21T17:31:50.728Z,99610.47
2023-03-21T17:34:19.473Z,99606.81
2023-03-21T17:36:49.771Z,99602.28
2023-03-21T17:39:23.902Z,99606.41
2023-03-21T17:41:52.850Z,99605.50
2023-03-21T17:44:21.595Z,99613.72
2023-03-21T17:46:51.743Z,99609.47
2023-03-21T17:49:21.020Z,99606.47
2023-03-21T17:51:50.312Z,99622.00
2023-03-21T17:54:19.824Z,99619.59
2023-03-21T17:56:48.341Z,99610.03
2023-03-21T17:59:16.600Z,99606.22
2023-03-21T18:01:44.781Z,99599.00
2023-03-21T18:04:12.968Z,99597.97
2023-03-21T18:06:41.741Z,99590.19
2023-03-21T18:09:11.667Z,99603.66
2023-03-21T18:11:41.827Z,99600.13
2023-03-21T18:14:17.655Z,99600.41
2023-03-21T18:16:47.941Z,99602.81
2023-03-21T18:19:16.090Z,99601.63
2023-03-21T18:21:45.263Z,99604.13
2023-03-21T18:24:14.439Z,99596.97
2023-03-21T18:26:45.996Z,99608.19
2023-03-21T18:32:08.564Z,99603.75
2023-03-21T18:34:39.389Z,99604.44
2023-03-21T18:37:09.124Z,99603.22
2023-03-21T18:39:38.966Z,99596.94
2023-03-21T18:42:16.745Z,99607.72
2023-03-21T18:44:47.858Z,99606.28
2023-03-21T18:47:19.443Z,99607.47
2023-03-21T18:50:12.657Z,99609.09
2023-03-21T18:52:36.682Z,99605.47
2023-03-21T18:55:05.385Z,99609.09
2023-03-21T18:57:37.928Z,99606.91
2023-03-21T19:00:13.323Z,99608.38
2023-03-21T19:02:47.533Z,99610.59
2023-03-21T19:05:19.438Z,99610.75
2023-03-21T19:07:49.073Z,99602.25
2023-03-21T19:10:20.681Z,99604.41
2023-03-21T19:12:51.547Z,99609.63
2023-03-21T19:15:23.935Z,99604.91
2023-03-21T19:20:45.282Z,99613.09
2023-03-21T19:23:13.752Z,99612.88
2023-03-21T19:25:43.717Z,99608.13
2023-03-21T19:28:13.390Z,99614.63
2023-03-21T19:30:49.761Z,99607.94
2023-03-21T19:33:19.918Z,99612.22
2023-03-21T19:35:50.221Z,99607.44
2023-03-21T19:38:20.062Z,99607.03
2023-03-21T19:40:51.534Z,99607.72
2023-03-21T19:43:33.121Z,99598.81
2023-03-21T19:46:03.188Z,99605.34
2023-03-21T19:48:35.727Z,99601.22
2023-03-21T19:53:55.573Z,99602.25
2023-03-21T19:56:27.087Z,99600.00
2023-03-21T19:58:57.544Z,99603.34
2023-03-21T20:01:27.541Z,99597.19
2023-03-21T20:03:56.104Z,99603.78
2023-03-21T20:06:24.483Z,99596.66
2023-03-21T20:11:41.920Z,99583.28
2023-03-21T20:14:11.581Z,99580.31
2023-03-21T20:16:43.308Z,99568.22
2023-03-21T20:19:16.046Z,99573.59
2023-03-21T20:21:52.918Z,99565.84
2023-03-21T20:24:23.003Z,99566.59
2023-03-21T20:26:53.461Z,99566.94
2023-03-21T20:32:12.089Z,99581.63
2023-03-21T20:34:40.544Z,99576.72
2023-03-21T20:37:09.716Z,99575.91
2023-03-21T20:39:38.280Z,99577.84
2023-03-21T20:42:07.132Z,99574.25
2023-03-21T20:44:56.834Z,99579.19
2023-03-21T20:47:25.530Z,99572.84
2023-03-21T20:49:54.352Z,99574.28
2023-03-21T20:52:54.785Z,99567.28
2023-03-21T20:55:13.123Z,99576.28
2023-03-21T20:57:42.369Z,99570.56
2023-03-21T21:00:19.483Z,99569.72
2023-03-21T21:02:49.372Z,99566.94
2023-03-21T21:05:30.697Z,99568.94
2023-03-21T21:08:02.959Z,99569.88
2023-03-21T21:10:33.732Z,99562.34
2023-03-21T21:13:02.652Z,99570.19
2023-03-21T21:15:33.538Z,99562.34
2023-03-21T21:18:06.127Z,99568.41
2023-03-21T21:20:36.082Z,99574.47
2023-03-21T21:23:06.266Z,99569.56
2023-03-21T21:25:36.177Z,99572.16
2023-03-21T21:28:09.614Z,99582.28
2023-03-21T21:30:41.795Z,99582.47
2023-03-21T21:33:10.207Z,99572.31
2023-03-21T21:35:38.457Z,99574.91
2023-03-21T21:38:06.987Z,99581.28
2023-03-21T21:40:35.168Z,99578.22
2023-03-21T21:43:03.929Z,99579.19
2023-03-21T21:45:32.792Z,99571.34
2023-03-21T21:48:02.563Z,99563.66
2023-03-21T21:50:30.810Z,99567.91
2023-03-21T21:53:03.509Z,99560.91
2023-03-21T21:55:32.335Z,99567.25
2023-03-21T21:58:02.045Z,99559.75
2023-03-21T22:00:34.081Z,99557.28
2023-03-21T22:03:03.873Z,99560.06
2023-03-21T22:05:32.450Z,99565.63
2023-03-21T22:08:02.826Z,99557.97
2023-03-21T22:10:33.417Z,99564.00
2023-03-21T22:13:01.602Z,99562.34
2023-03-21T22:15:30.296Z,99567.44
2023-03-21T22:17:58.808Z,99548.94
2023-03-21T22:20:28.390Z,99549.94
2023-03-21T22:22:57.058Z,99547.66
2023-03-21T22:25:25.446Z,99556.13
2023-03-21T22:27:53.685Z,99546.34
2023-03-21T22:30:22.027Z,99553.19
2023-03-21T22:33:06.248Z,99547.31
2023-03-21T22:35:38.194Z,99551.25
2023-03-21T22:38:06.396Z,99555.00
2023-03-21T22:40:34.645Z,99548.91
2023-03-21T22:43:02.917Z,99547.16
2023-03-21T22:45:31.129Z,99545.84
2023-03-21T22:48:01.263Z,99545.34
2023-03-21T22:50:29.923Z,99542.91
2023-03-21T22:52:59.500Z,99544.88
2023-03-21T22:55:27.611Z,99547.63
2023-03-21T22:57:55.753Z,99540.59
2023-03-21T23:00:24.081Z,99538.97
2023-03-21T23:02:52.296Z,99534.75
2023-03-21T23:05:20.650Z,99535.41
2023-03-21T23:07:48.794Z,99536.53
2023-03-21T23:10:18.796Z,99535.41
2023-03-21T23:12:47.031Z,99534.25
2023-03-21T23:15:15.288Z,99537.34
2023-03-21T23:17:44.133Z,99532.28
2023-03-21T23:20:12.793Z,99535.88
2023-03-21T23:22:43.889Z,99537.19
2023-03-21T23:25:12.741Z,99538.50
2023-03-21T23:27:42.463Z,99533.59
2023-03-21T23:30:11.245Z,99540.59
2023-03-21T23:32:41.697Z,99534.72
2023-03-21T23:35:11.360Z,99527.06
2023-03-21T23:37:42.511Z,99520.53
2023-03-21T23:40:12.483Z,99518.72
2023-03-21T23:42:42.071Z,99526.72
2023-03-21T23:45:11.497Z,99533.25
2023-03-21T23:47:39.879Z,99521.16
2023-03-21T23:50:10.208Z,99526.72
2023-03-21T23:52:41.369Z,99511.53
2023-03-21T23:55:10.331Z,99507.94
2023-03-21T23:57:41.578Z,99507.75
